Time;durP1;ratioP1;P1;durP2;ratioP2;P2;SDS_P1;SDS_P2;PMS_P1;PMS_P2;Temp;Humidity;BMP_temperature;BMP_pressure;BME280_temperature;BME280_humidity;BME280_pressure;Samples;Min_cycle;Max_cycle;Signal;HPM_P1;HPM_P2
2023/08/03 00:00:12;;;;;;;4.38;1.60;;;17.10;99.90;;;;;;4992110;28;20037;-42
2023/08/03 00:02:38;;;;;;;3.65;1.35;;;17.20;99.90;;;;;;5007972;28;20515;-41
2023/08/03 00:05:04;;;;;;;1.98;1.30;;;17.10;99.90;;;;;;4987214;28;20452;-40
2023/08/03 00:07:32;;;;;;;2.03;1.13;;;17.10;99.90;;;;;;4996576;28;20034;-41
2023/08/03 00:09:57;;;;;;;2.45;1.30;;;17.00;99.90;;;;;;5007934;28;20037;-41
2023/08/03 00:12:23;;;;;;;7.53;1.50;;;17.00;99.90;;;;;;4999153;28;20042;-37
2023/08/03 00:14:52;;;;;;;4.28;1.70;;;16.90;99.90;;;;;;5003867;28;20487;-42
2023/08/03 00:17:17;;;;;;;3.10;1.60;;;16.80;99.90;;;;;;5005674;28;20026;-41
2023/08/03 00:19:43;;;;;;;4.40;1.48;;;16.70;99.90;;;;;;4999474;28;20118;-41
2023/08/03 00:22:09;;;;;;;3.28;1.45;;;16.70;99.90;;;;;;5005462;28;20023;-42
2023/08/03 00:24:35;;;;;;;5.93;1.40;;;16.80;99.90;;;;;;5000930;28;20092;-41
2023/08/03 00:27:01;;;;;;;3.33;1.50;;;16.80;99.90;;;;;;5004379;28;20554;-36
2023/08/03 00:29:27;;;;;;;3.78;1.30;;;16.80;99.90;;;;;;4996578;28;20062;-41
2023/08/03 00:31:52;;;;;;;2.17;1.30;;;16.80;99.90;;;;;;5008331;28;20030;-41
2023/08/03 00:34:18;;;;;;;3.42;1.50;;;16.80;99.90;;;;;;4999283;28;20084;-42
2023/08/03 00:36:43;;;;;;;1.90;1.23;;;16.70;99.90;;;;;;4997284;28;20495;-43
2023/08/03 00:39:09;;;;;;;2.17;1.20;;;16.70;99.90;;;;;;5001351;28;20406;-42
2023/08/03 00:41:34;;;;;;;3.40;1.20;;;16.70;99.90;;;;;;5003461;28;20038;-40
2023/08/03 00:44:00;;;;;;;2.40;1.20;;;16.60;99.90;;;;;;5002465;28;20030;-41
2023/08/03 00:46:26;;;;;;;2.22;1.50;;;16.60;99.90;;;;;;5001121;28;20044;-42
2023/08/03 00:48:51;;;;;;;5.18;1.67;;;16.60;99.90;;;;;;5002876;28;20029;-41
2023/08/03 00:51:17;;;;;;;2.80;1.38;;;16.60;99.90;;;;;;5004296;28;20181;-40
2023/08/03 00:53:46;;;;;;;3.35;1.40;;;16.70;99.90;;;;;;5009526;28;20065;-38
2023/08/03 00:56:12;;;;;;;4.25;1.40;;;16.60;99.90;;;;;;5005009;28;20022;-38
2023/08/03 00:58:40;;;;;;;2.63;1.20;;;16.60;99.90;;;;;;5000929;28;20042;-41
2023/08/03 01:01:06;;;;;;;3.03;1.20;;;16.40;99.90;;;;;;5008141;28;20030;-34
2023/08/03 01:03:32;;;;;;;2.85;1.20;;;16.50;99.90;;;;;;5004522;28;20036;-34
2023/08/03 01:05:58;;;;;;;1.88;1.27;;;16.50;99.90;;;;;;4998497;28;20089;-34
2023/08/03 01:08:24;;;;;;;2.70;1.40;;;16.50;99.90;;;;;;5010273;28;20037;-33
2023/08/03 01:10:50;;;;;;;5.30;1.77;;;16.40;99.90;;;;;;5000970;28;20032;-33
2023/08/03 01:13:16;;;;;;;1.67;1.10;;;16.30;99.90;;;;;;5002171;28;20177;-35
2023/08/03 01:15:42;;;;;;;2.88;1.50;;;16.40;99.90;;;;;;5007917;28;20531;-35
2023/08/03 01:18:07;;;;;;;4.57;1.50;;;16.40;99.90;;;;;;5002698;28;20022;-34
2023/08/03 01:20:36;;;;;;;6.07;1.45;;;16.40;99.90;;;;;;5003393;28;20041;-33
2023/08/03 01:23:04;;;;;;;2.30;1.70;;;16.40;99.90;;;;;;5005230;28;20037;-32
2023/08/03 01:25:31;;;;;;;2.67;1.40;;;16.40;99.90;;;;;;5007167;28;20030;-33
2023/08/03 01:27:57;;;;;;;6.57;1.70;;;16.30;99.90;;;;;;5001290;28;20046;-36
2023/08/03 01:30:23;;;;;;;3.13;1.27;;;16.30;99.90;;;;;;5014665;28;20037;-35
2023/08/03 01:32:49;;;;;;;3.65;1.58;;;16.30;99.90;;;;;;4999251;28;20034;-33
2023/08/03 01:35:18;;;;;;;4.07;1.50;;;16.20;99.90;;;;;;5008760;28;20479;-33
2023/08/03 01:37:44;;;;;;;3.55;1.27;;;16.30;99.90;;;;;;5005024;28;20061;-33
2023/08/03 01:40:12;;;;;;;3.25;1.30;;;16.20;99.90;;;;;;5007926;28;20026;-32
2023/08/03 01:42:38;;;;;;;1.95;1.20;;;16.20;99.90;;;;;;5003705;28;20029;-32
2023/08/03 01:45:06;;;;;;;3.75;1.50;;;16.10;99.90;;;;;;5003138;28;20061;-33
2023/08/03 01:47:31;;;;;;;2.63;1.20;;;16.10;99.90;;;;;;5004598;28;20087;-33
2023/08/03 01:49:57;;;;;;;3.38;1.30;;;16.10;99.90;;;;;;4993859;28;20045;-33
2023/08/03 01:52:22;;;;;;;4.53;1.77;;;16.00;99.90;;;;;;5011236;28;20036;-33
2023/08/03 01:54:48;;;;;;;3.88;1.40;;;15.90;99.90;;;;;;5002832;28;20059;-34
2023/08/03 01:57:14;;;;;;;4.75;1.45;;;15.80;99.90;;;;;;5003988;28;20030;-33
2023/08/03 01:59:40;;;;;;;3.45;1.48;;;15.80;99.90;;;;;;5003658;28;20114;-32
2023/08/03 02:02:06;;;;;;;2.70;1.65;;;15.80;99.90;;;;;;5003964;28;20125;-36
2023/08/03 02:04:32;;;;;;;2.80;1.40;;;15.80;99.90;;;;;;4999685;28;20129;-35
2023/08/03 02:07:16;;;;;;;3.05;1.30;;;15.70;99.90;;;;;;5004428;28;20044;-32
2023/08/03 02:09:42;;;;;;;5.30;1.75;;;15.70;99.90;;;;;;5008477;28;20133;-40
2023/08/03 02:12:08;;;;;;;2.15;1.70;;;15.70;99.90;;;;;;5000569;28;20546;-41
2023/08/03 02:14:33;;;;;;;7.25;1.83;;;15.60;99.90;;;;;;5002669;28;20033;-41
2023/08/03 02:16:59;;;;;;;3.28;1.38;;;15.60;99.90;;;;;;5002174;28;20119;-38
2023/08/03 02:19:25;;;;;;;2.92;1.50;;;15.60;99.90;;;;;;5000620;28;20459;-41
2023/08/03 02:21:50;;;;;;;7.03;1.67;;;15.60;99.90;;;;;;5004618;28;20022;-41
2023/08/03 02:24:16;;;;;;;3.85;1.48;;;15.50;99.90;;;;;;5000780;28;20041;-38
2023/08/03 02:26:41;;;;;;;3.03;1.48;;;15.60;99.90;;;;;;5003578;28;20042;-40
2023/08/03 02:29:07;;;;;;;3.03;1.30;;;15.60;99.90;;;;;;5001887;28;20086;-41
2023/08/03 02:31:32;;;;;;;4.10;1.50;;;15.60;99.90;;;;;;5004720;28;20041;-41
2023/08/03 02:33:58;;;;;;;3.13;1.50;;;15.60;99.90;;;;;;5008578;28;20108;-40
2023/08/03 02:36:24;;;;;;;4.07;1.52;;;15.60;99.90;;;;;;5000269;28;20045;-39
2023/08/03 02:38:49;;;;;;;3.67;1.17;;;15.50;99.90;;;;;;4991850;28;20113;-40
2023/08/03 02:41:15;;;;;;;3.65;1.30;;;15.50;99.90;;;;;;5000165;28;20030;-41
2023/08/03 02:43:41;;;;;;;4.97;1.40;;;15.40;99.90;;;;;;5000334;28;20034;-38
2023/08/03 02:46:07;;;;;;;5.03;1.48;;;15.30;99.90;;;;;;5008024;28;20030;-41
2023/08/03 02:48:32;;;;;;;6.45;1.65;;;15.30;99.90;;;;;;5000328;28;20052;-41
2023/08/03 02:50:58;;;;;;;4.43;1.83;;;15.30;99.90;;;;;;5003767;28;20030;-41
2023/08/03 02:53:23;;;;;;;4.03;1.50;;;15.30;99.90;;;;;;5004255;28;20037;-40
2023/08/03 02:55:50;;;;;;;3.58;1.50;;;15.30;99.90;;;;;;5009298;28;20041;-42
2023/08/03 02:58:16;;;;;;;4.30;1.58;;;15.30;99.90;;;;;;5001739;28;20022;-39
2023/08/03 03:00:42;;;;;;;4.68;1.83;;;15.30;99.90;;;;;;5004447;28;20037;-41
2023/08/03 03:03:07;;;;;;;3.78;1.85;;;15.20;99.90;;;;;;4998515;28;20039;-39
2023/08/03 03:05:33;;;;;;;7.55;2.17;;;15.20;99.90;;;;;;5001932;28;20022;-41
2023/08/03 03:07:58;;;;;;;7.53;2.10;;;15.20;99.90;;;;;;5007098;28;20086;-40
2023/08/03 03:10:24;;;;;;;6.63;1.60;;;15.20;99.90;;;;;;4998050;28;20022;-39
2023/08/03 03:12:50;;;;;;;4.88;1.73;;;15.10;99.90;;;;;;5009204;28;20040;-41
2023/08/03 03:15:15;;;;;;;4.65;1.63;;;15.10;99.90;;;;;;5002952;28;20030;-41
2023/08/03 03:17:42;;;;;;;6.07;1.38;;;15.10;99.90;;;;;;5005037;28;20120;-41
2023/08/03 03:20:08;;;;;;;4.57;1.77;;;15.10;99.90;;;;;;4998233;28;20081;-41
2023/08/03 03:22:35;;;;;;;2.25;1.27;;;15.10;99.90;;;;;;5007725;28;20121;-41
2023/08/03 03:25:02;;;;;;;4.10;1.48;;;15.00;99.90;;;;;;5007357;28;20030;-38
2023/08/03 03:27:28;;;;;;;6.37;1.60;;;15.00;99.90;;;;;;5001094;28;20604;-39
2023/08/03 03:29:53;;;;;;;4.05;1.15;;;15.00;99.90;;;;;;5005384;28;20030;-41
2023/08/03 03:32:19;;;;;;;3.65;1.55;;;15.00;99.90;;;;;;5000473;28;20049;-41
2023/08/03 03:34:45;;;;;;;6.57;1.90;;;14.90;99.90;;;;;;5003068;28;20064;-40
2023/08/03 03:37:10;;;;;;;7.03;1.48;;;14.90;99.90;;;;;;4998268;28;20029;-41
2023/08/03 03:39:36;;;;;;;4.75;1.73;;;14.90;99.90;;;;;;5002693;28;20030;-38
2023/08/03 03:42:01;;;;;;;3.05;1.50;;;14.80;99.90;;;;;;4998482;28;20029;-41
2023/08/03 03:44:27;;;;;;;2.67;1.40;;;14.80;99.90;;;;;;4995116;28;20408;-39
2023/08/03 03:46:52;;;;;;;5.25;1.90;;;14.80;99.90;;;;;;5000470;28;20041;-39
2023/08/03 03:49:18;;;;;;;3.80;1.55;;;14.80;99.90;;;;;;5005535;28;20136;-39
2023/08/03 03:51:44;;;;;;;5.20;1.50;;;14.80;99.90;;;;;;5005852;28;20041;-39
2023/08/03 03:54:09;;;;;;;4.70;1.27;;;14.80;99.90;;;;;;4984425;28;20033;-41
2023/08/03 03:56:35;;;;;;;5.88;1.70;;;14.80;99.90;;;;;;5001059;28;20149;-41
2023/08/03 03:59:00;;;;;;;4.55;1.30;;;14.70;99.90;;;;;;4999595;28;20491;-39
2023/08/03 04:01:26;;;;;;;3.53;1.58;;;14.70;99.90;;;;;;5004200;28;20481;-40
2023/08/03 04:03:52;;;;;;;4.97;1.92;;;14.70;99.90;;;;;;4997469;28;20608;-41
2023/08/03 04:06:17;;;;;;;6.72;1.67;;;14.70;99.90;;;;;;5001318;28;20037;-41
2023/08/03 04:08:43;;;;;;;5.80;1.60;;;14.70;99.90;;;;;;4989887;28;20022;-41
2023/08/03 04:11:08;;;;;;;4.28;1.42;;;14.70;99.90;;;;;;4987776;28;20038;-41
2023/08/03 04:13:34;;;;;;;4.40;1.77;;;14.60;99.90;;;;;;5000595;28;20080;-41
2023/08/03 04:16:00;;;;;;;3.28;1.60;;;14.60;99.90;;;;;;4998712;28;20022;-39
2023/08/03 04:18:27;;;;;;;3.83;1.33;;;14.60;99.90;;;;;;5008583;28;20058;-41
2023/08/03 04:20:53;;;;;;;6.50;1.50;;;14.50;99.90;;;;;;5005383;28;20494;-40
2023/08/03 04:23:19;;;;;;;6.13;1.73;;;14.60;99.90;;;;;;4994687;28;20045;-41
2023/08/03 04:25:44;;;;;;;5.45;1.70;;;14.60;99.90;;;;;;5002652;28;20604;-38
2023/08/03 04:28:10;;;;;;;5.95;1.70;;;14.70;99.90;;;;;;4983093;28;20719;-41
2023/08/03 04:30:35;;;;;;;7.05;1.67;;;14.70;99.90;;;;;;4999168;28;20105;-41
2023/08/03 04:33:01;;;;;;;5.90;1.60;;;14.80;99.90;;;;;;5004439;28;20033;-39
2023/08/03 04:35:27;;;;;;;5.68;1.90;;;14.80;99.90;;;;;;5003110;28;20129;-41
2023/08/03 04:37:52;;;;;;;6.72;2.55;;;14.80;99.90;;;;;;5009988;28;20018;-39
2023/08/03 04:40:18;;;;;;;6.20;2.17;;;14.90;99.90;;;;;;4998762;28;20031;-39
2023/08/03 04:42:43;;;;;;;7.38;2.50;;;14.90;99.90;;;;;;5005119;28;20060;-40
2023/08/03 04:45:09;;;;;;;6.10;2.38;;;15.00;99.90;;;;;;5008469;28;20483;-41
2023/08/03 04:47:35;;;;;;;5.80;2.60;;;15.00;99.90;;;;;;5005386;28;20027;-40
2023/08/03 04:50:00;;;;;;;5.78;2.17;;;15.00;99.90;;;;;;5005694;28;20484;-40
2023/08/03 04:52:26;;;;;;;6.88;2.08;;;15.10;99.90;;;;;;4991115;28;20100;-35
2023/08/03 04:54:52;;;;;;;6.15;1.85;;;15.10;99.90;;;;;;4994185;28;20034;-40
2023/08/03 04:57:17;;;;;;;6.30;1.85;;;15.20;99.90;;;;;;4998076;28;20046;-40
2023/08/03 04:59:43;;;;;;;4.38;1.75;;;15.20;99.90;;;;;;5009459;28;20125;-40
2023/08/03 05:02:08;;;;;;;4.88;1.50;;;15.30;99.90;;;;;;5001092;28;20030;-41
2023/08/03 05:04:34;;;;;;;4.72;1.52;;;15.30;99.90;;;;;;5006109;28;20030;-40
2023/08/03 05:07:00;;;;;;;5.05;1.77;;;15.40;99.90;;;;;;5006330;28;20034;-40
2023/08/03 05:09:26;;;;;;;5.72;2.25;;;15.50;99.90;;;;;;5003417;28;20064;-41
2023/08/03 05:11:51;;;;;;;8.50;1.80;;;15.50;99.90;;;;;;5008384;28;20472;-41
2023/08/03 05:14:17;;;;;;;2.50;1.55;;;15.60;99.90;;;;;;5004840;28;20084;-34
2023/08/03 05:16:42;;;;;;;5.97;1.98;;;15.60;99.90;;;;;;5000246;28;20026;-42
2023/08/03 05:19:08;;;;;;;4.32;1.77;;;15.70;99.90;;;;;;5005335;28;20025;-40
2023/08/03 05:21:34;;;;;;;6.35;1.55;;;15.80;99.90;;;;;;5008735;28;20061;-41
2023/08/03 05:23:59;;;;;;;6.10;1.40;;;15.80;99.90;;;;;;5006282;28;20097;-40
2023/08/03 05:26:26;;;;;;;2.47;1.42;;;15.90;99.90;;;;;;5004442;28;20030;-38
2023/08/03 05:28:52;;;;;;;5.97;1.40;;;15.90;99.90;;;;;;5004042;28;20807;-39
2023/08/03 05:31:17;;;;;;;4.60;1.60;;;15.90;99.90;;;;;;5004849;28;20073;-37
2023/08/03 05:33:43;;;;;;;3.58;1.40;;;16.00;99.90;;;;;;5006054;28;20044;-38
2023/08/03 05:36:09;;;;;;;5.72;1.30;;;16.10;99.90;;;;;;5006403;28;20058;-39
2023/08/03 05:38:35;;;;;;;4.32;1.20;;;16.20;99.90;;;;;;5001996;28;20060;-41
2023/08/03 05:41:01;;;;;;;4.00;1.23;;;16.30;99.90;;;;;;5007338;28;20635;-34
2023/08/03 05:43:28;;;;;;;3.97;1.30;;;16.30;99.90;;;;;;5008749;28;20060;-31
2023/08/03 05:46:01;;;;;;;2.80;1.05;;;16.40;99.90;;;;;;5007951;28;20112;-31
2023/08/03 05:48:29;;;;;;;3.08;1.40;;;16.60;99.90;;;;;;5008129;28;20451;-33
2023/08/03 05:50:56;;;;;;;4.13;1.17;;;16.60;99.90;;;;;;5007084;28;20038;-31
2023/08/03 05:53:22;;;;;;;4.63;0.90;;;16.70;99.90;;;;;;5007717;28;20065;-31
2023/08/03 05:55:48;;;;;;;3.67;1.10;;;16.70;99.90;;;;;;4997255;28;20088;-31
2023/08/03 05:58:16;;;;;;;3.53;1.30;;;16.80;99.90;;;;;;5007363;28;20026;-32
2023/08/03 06:00:46;;;;;;;3.47;1.13;;;16.90;99.90;;;;;;5001630;28;20085;-31
2023/08/03 06:03:13;;;;;;;3.90;1.30;;;17.00;99.90;;;;;;5005226;28;20018;-32
2023/08/03 06:05:46;;;;;;;2.45;1.20;;;17.10;99.90;;;;;;5010537;28;20033;-33
2023/08/03 06:08:22;;;;;;;2.97;1.40;;;17.10;99.90;;;;;;5007523;28;20035;-31
2023/08/03 06:10:53;;;;;;;2.05;0.80;;;17.30;99.90;;;;;;5000159;28;20026;-34
2023/08/03 06:13:38;;;;;;;1.77;0.80;;;17.30;99.90;;;;;;5002193;28;20048;-30
2023/08/03 06:16:08;;;;;;;2.63;0.88;;;17.40;99.90;;;;;;5004845;28;20025;-30
2023/08/03 06:18:52;;;;;;;2.42;1.38;;;17.40;99.90;;;;;;5010218;28;20121;-31
2023/08/03 06:21:18;;;;;;;4.30;1.10;;;17.50;99.90;;;;;;5003039;28;20050;-31
2023/08/03 06:23:49;;;;;;;2.78;0.98;;;17.60;99.90;;;;;;5003368;28;20034;-35
2023/08/03 06:26:16;;;;;;;3.63;1.02;;;17.70;99.90;;;;;;5003495;28;20505;-32
2023/08/03 06:28:47;;;;;;;3.85;1.00;;;17.70;99.90;;;;;;4996887;28;20057;-31
2023/08/03 06:31:28;;;;;;;6.40;1.33;;;17.70;99.90;;;;;;4999829;28;20042;-31
2023/08/03 06:33:54;;;;;;;1.23;0.80;;;17.80;99.90;;;;;;5002630;28;20141;-30
2023/08/03 06:36:25;;;;;;;2.15;0.80;;;17.90;99.90;;;;;;5002853;28;20184;-31
2023/08/03 06:38:50;;;;;;;3.78;0.90;;;18.10;99.90;;;;;;5003068;28;20534;-33
2023/08/03 06:41:16;;;;;;;1.95;0.73;;;18.20;99.90;;;;;;5006004;28;20037;-31
2023/08/03 06:43:42;;;;;;;1.60;1.02;;;18.30;99.90;;;;;;5003483;28;20080;-31
2023/08/03 06:46:07;;;;;;;3.28;0.80;;;18.30;99.90;;;;;;4984940;28;20068;-31
2023/08/03 06:48:33;;;;;;;3.00;0.90;;;18.30;99.90;;;;;;4991566;28;20077;-32
2023/08/03 06:51:05;;;;;;;3.28;0.90;;;18.40;99.90;;;;;;4984490;28;20499;-36
2023/08/03 06:53:31;;;;;;;1.65;0.93;;;18.50;99.90;;;;;;4995760;28;20022;-31
2023/08/03 06:55:57;;;;;;;2.97;1.23;;;18.50;99.90;;;;;;4999203;28;20067;-32
2023/08/03 06:58:23;;;;;;;3.88;1.05;;;18.50;99.90;;;;;;5002973;28;20731;-32
2023/08/03 07:00:49;;;;;;;2.28;1.00;;;18.60;99.90;;;;;;5003056;28;20034;-31
2023/08/03 07:03:14;;;;;;;6.38;1.48;;;18.70;99.90;;;;;;4996874;28;20056;-32
2023/08/03 07:05:40;;;;;;;4.60;0.90;;;18.70;99.90;;;;;;5005260;28;20053;-33
2023/08/03 07:08:06;;;;;;;3.03;0.80;;;18.70;99.90;;;;;;5005485;28;20039;-32
2023/08/03 07:10:34;;;;;;;3.80;1.27;;;18.80;99.90;;;;;;5006150;28;20057;-32
2023/08/03 07:12:59;;;;;;;0.87;0.77;;;18.80;99.90;;;;;;4997838;28;20566;-32
2023/08/03 07:15:25;;;;;;;3.45;1.33;;;18.90;99.90;;;;;;4998872;28;20365;-31
2023/08/03 07:17:51;;;;;;;3.78;0.90;;;18.90;99.90;;;;;;5004434;28;20032;-32
2023/08/03 07:20:18;;;;;;;2.78;0.98;;;18.90;99.90;;;;;;5005277;28;20048;-31
2023/08/03 07:22:45;;;;;;;2.13;1.02;;;18.90;99.90;;;;;;5004057;28;20052;-32
2023/08/03 07:25:11;;;;;;;1.73;0.63;;;19.10;99.90;;;;;;5005256;28;20116;-32
2023/08/03 07:27:40;;;;;;;3.25;0.77;;;19.10;99.90;;;;;;5002609;28;20436;-33
2023/08/03 07:30:07;;;;;;;1.38;0.73;;;19.10;99.90;;;;;;4998015;28;20066;-36
2023/08/03 07:32:33;;;;;;;2.83;0.73;;;19.20;99.90;;;;;;5005742;28;20038;-32
2023/08/03 07:35:00;;;;;;;4.47;0.80;;;19.30;99.90;;;;;;5005711;28;20035;-31
2023/08/03 07:37:25;;;;;;;3.67;0.88;;;19.40;99.90;;;;;;5000276;28;20022;-32
2023/08/03 07:39:51;;;;;;;2.35;0.80;;;19.40;99.90;;;;;;5002310;28;20030;-36
2023/08/03 07:42:16;;;;;;;1.23;0.70;;;19.40;99.90;;;;;;4995895;28;20057;-32
2023/08/03 07:44:42;;;;;;;5.53;1.10;;;19.40;99.90;;;;;;4990941;28;20472;-33
2023/08/03 07:47:08;;;;;;;2.67;0.90;;;19.50;99.90;;;;;;5004944;28;20919;-31
2023/08/03 07:49:33;;;;;;;5.28;0.80;;;19.60;99.90;;;;;;4999278;28;20493;-33
2023/08/03 07:51:59;;;;;;;2.55;0.70;;;19.70;99.90;;;;;;4994379;28;20065;-31
2023/08/03 07:57:29;;;;;;;3.10;0.90;;;19.80;99.90;;;;;;5008500;28;20240;-31
2023/08/03 07:59:54;;;;;;;4.97;0.80;;;19.70;99.90;;;;;;5006302;28;20113;-36
2023/08/03 08:02:21;;;;;;;1.30;0.60;;;19.50;99.90;;;;;;5008483;28;20498;-40
2023/08/03 08:04:50;;;;;;;1.42;0.80;;;19.60;99.90;;;;;;5005438;28;20032;-40
2023/08/03 08:07:16;;;;;;;1.67;0.70;;;19.70;99.90;;;;;;5010816;28;20439;-39
2023/08/03 08:09:42;;;;;;;4.07;0.63;;;19.80;99.90;;;;;;5001217;28;20033;-38
2023/08/03 08:12:08;;;;;;;2.17;0.45;;;19.80;99.90;;;;;;5008812;28;20389;-39
2023/08/03 08:14:34;;;;;;;1.10;0.70;;;19.90;99.90;;;;;;5009586;28;20039;-40
2023/08/03 08:16:59;;;;;;;0.38;0.38;;;19.70;99.90;;;;;;5005107;28;20476;-40
2023/08/03 08:19:25;;;;;;;2.42;0.50;;;19.50;99.90;;;;;;5005178;28;20022;-40
2023/08/03 08:21:51;;;;;;;2.78;0.70;;;19.30;99.90;;;;;;5002963;28;20386;-40
2023/08/03 08:24:16;;;;;;;1.27;0.50;;;19.40;99.90;;;;;;5005699;28;20038;-37
2023/08/03 08:26:43;;;;;;;1.38;0.52;;;19.60;99.90;;;;;;5003085;28;20443;-39
2023/08/03 08:29:09;;;;;;;3.80;0.60;;;19.90;99.90;;;;;;5003323;28;20049;-39
2023/08/03 08:31:35;;;;;;;1.52;0.68;;;20.20;99.90;;;;;;5003306;28;20042;-40
2023/08/03 08:34:00;;;;;;;1.95;0.40;;;20.40;99.90;;;;;;5008039;28;20118;-40
2023/08/03 08:36:26;;;;;;;1.17;0.35;;;20.50;99.90;;;;;;5004950;28;20033;-38
2023/08/03 08:38:51;;;;;;;2.03;0.40;;;20.30;99.90;;;;;;5004201;28;20407;-38
2023/08/03 08:41:17;;;;;;;0.95;0.60;;;20.40;99.90;;;;;;5008429;28;20025;-40
2023/08/03 08:43:42;;;;;;;2.22;0.70;;;20.60;99.90;;;;;;4985364;28;20206;-39
2023/08/03 08:46:08;;;;;;;3.05;0.80;;;20.80;99.90;;;;;;4997706;28;20041;-39
2023/08/03 08:48:35;;;;;;;1.77;0.52;;;20.80;99.90;;;;;;5006366;28;20399;-40
2023/08/03 08:51:03;;;;;;;1.87;0.60;;;21.00;99.90;;;;;;4999839;28;20030;-39
2023/08/03 08:53:29;;;;;;;;;;;20.90;99.90;;;;;;5003888;28;20049;-39
2023/08/03 08:55:55;;;;;;;3.03;0.70;;;21.10;99.90;;;;;;5012373;28;19909;-39
2023/08/03 08:58:20;;;;;;;1.25;0.32;;;21.40;99.90;;;;;;5006897;28;20026;-41
2023/08/03 09:00:47;;;;;;;1.27;0.60;;;21.30;99.90;;;;;;4989098;28;20027;-40
2023/08/03 09:03:14;;;;;;;1.55;0.55;;;21.40;99.90;;;;;;5009239;28;20506;-41
2023/08/03 09:05:40;;;;;;;0.97;0.60;;;21.50;99.90;;;;;;5013810;28;20026;-40
2023/08/03 09:08:18;;;;;;;0.70;0.40;;;21.60;99.90;;;;;;5001843;28;20061;-41
2023/08/03 09:10:52;;;;;;;3.45;0.73;;;21.40;99.90;;;;;;5007324;28;20029;-41
2023/08/03 09:13:31;;;;;;;2.28;0.70;;;21.40;99.90;;;;;;5006120;28;20034;-41
2023/08/03 09:15:57;;;;;;;1.38;0.40;;;21.40;99.90;;;;;;5002819;28;20033;-39
2023/08/03 09:18:26;;;;;;;1.17;0.50;;;21.50;99.90;;;;;;5019251;28;20030;-36
2023/08/03 09:21:11;;;;;;;1.25;0.40;;;21.40;99.90;;;;;;5000359;28;20038;-36
2023/08/03 09:23:37;;;;;;;1.65;0.73;;;21.60;99.90;;;;;;5003260;28;20032;-41
2023/08/03 09:26:04;;;;;;;1.35;0.60;;;21.80;99.90;;;;;;5003872;28;20108;-40
2023/08/03 09:28:40;;;;;;;3.20;0.85;;;21.90;99.90;;;;;;5008491;28;20049;-39
2023/08/03 09:31:07;;;;;;;1.13;0.43;;;21.70;99.90;;;;;;5003549;28;20039;-38
2023/08/03 09:33:33;;;;;;;2.58;0.60;;;21.80;99.90;;;;;;5009347;28;20034;-39
2023/08/03 09:36:10;;;;;;;1.08;0.40;;;22.00;99.90;;;;;;5002998;28;20070;-40
2023/08/03 09:38:40;;;;;;;1.10;0.50;;;22.00;99.90;;;;;;5003953;28;20383;-41
2023/08/03 09:41:05;;;;;;;0.65;0.32;;;22.20;99.90;;;;;;5004727;28;20664;-38
2023/08/03 09:43:32;;;;;;;1.80;0.25;;;21.80;99.90;;;;;;5004011;28;20069;-41
2023/08/03 09:45:58;;;;;;;0.98;0.50;;;21.50;99.90;;;;;;5002673;28;20034;-40
2023/08/03 09:48:25;;;;;;;1.63;0.38;;;21.40;99.90;;;;;;5015633;28;20030;-38
2023/08/03 09:50:56;;;;;;;1.88;0.50;;;21.40;99.90;;;;;;4987267;28;20089;-38
2023/08/03 09:53:24;;;;;;;2.75;0.50;;;21.40;99.90;;;;;;5002947;28;20442;-37
2023/08/03 09:56:01;;;;;;;1.45;0.40;;;21.40;99.90;;;;;;5002867;28;20053;-38
2023/08/03 09:58:58;;;;;;;2.50;0.40;;;21.60;99.90;;;;;;4994217;28;20032;-41
2023/08/03 10:01:26;;;;;;;0.50;0.30;;;21.70;99.90;;;;;;4996957;28;20139;-40
2023/08/03 10:03:58;;;;;;;1.02;0.28;;;22.10;99.90;;;;;;5004992;28;20396;-40
2023/08/03 10:06:31;;;;;;;1.65;0.28;;;22.00;99.90;;;;;;4993872;28;20042;-41
2023/08/03 10:09:04;;;;;;;2.00;0.38;;;21.90;99.90;;;;;;5001112;28;20064;-41
2023/08/03 10:11:35;;;;;;;2.38;0.43;;;22.20;99.90;;;;;;4999642;28;20073;-40
2023/08/03 10:14:03;;;;;;;1.85;0.30;;;22.50;99.90;;;;;;5007972;28;20389;-42
2023/08/03 10:16:31;;;;;;;0.30;0.28;;;22.30;99.90;;;;;;4997824;28;20140;-39
2023/08/03 10:18:57;;;;;;;;;;;21.80;99.90;;;;;;5005421;28;20029;-32
2023/08/03 10:21:23;;;;;;;1.05;0.40;;;21.70;99.90;;;;;;5006981;28;19920;-30
2023/08/03 10:24:15;;;;;;;0.50;0.38;;;21.50;99.90;;;;;;4992973;28;20105;-31
2023/08/03 10:26:54;;;;;;;1.77;0.47;;;21.50;99.90;;;;;;4983771;28;20039;-31
2023/08/03 10:29:54;;;;;;;1.98;0.25;;;21.90;99.90;;;;;;5003317;28;20082;-34
2023/08/03 10:32:22;;;;;;;3.67;0.30;;;22.20;99.90;;;;;;5004195;28;20045;-30
2023/08/03 10:34:50;;;;;;;;;;;22.10;99.90;;;;;;5008520;28;20038;-30
2023/08/03 10:37:16;;;;;;;0.73;0.50;;;21.80;99.90;;;;;;5005070;28;19921;-31
2023/08/03 10:39:46;;;;;;;2.90;0.60;;;21.80;99.90;;;;;;5004395;28;20026;-33
2023/08/03 10:42:32;;;;;;;1.10;0.35;;;21.80;99.90;;;;;;5003778;28;20034;-31
2023/08/03 10:45:27;;;;;;;0.60;0.22;;;21.40;99.90;;;;;;5004523;28;20576;-31
2023/08/03 10:47:54;;;;;;;0.20;0.20;;;21.60;99.90;;;;;;5005083;28;20819;-31
2023/08/03 10:50:20;;;;;;;1.67;0.37;;;21.70;99.90;;;;;;4985417;28;20491;-30
2023/08/03 10:52:46;;;;;;;2.13;0.35;;;21.90;99.90;;;;;;5009051;28;20030;-29
2023/08/03 10:55:26;;;;;;;0.65;0.20;;;21.80;99.90;;;;;;5009955;28;20081;-32
2023/08/03 10:57:54;;;;;;;2.00;0.22;;;22.10;99.90;;;;;;5008615;28;20056;-32
2023/08/03 11:00:21;;;;;;;1.55;0.40;;;22.00;99.90;;;;;;4991613;28;20033;-37
2023/08/03 11:02:47;;;;;;;1.42;0.30;;;22.00;99.90;;;;;;5000292;28;20038;-33
2023/08/03 11:05:13;;;;;;;1.05;0.35;;;22.20;99.90;;;;;;5002212;28;20041;-30
2023/08/03 11:07:46;;;;;;;1.08;0.40;;;22.60;99.90;;;;;;5000268;28;20093;-30
2023/08/03 11:10:14;;;;;;;6.68;0.70;;;22.70;99.90;;;;;;5001539;28;20048;-31
2023/08/03 11:12:41;;;;;;;1.63;0.45;;;22.80;99.90;;;;;;5000819;28;20048;-32
2023/08/03 11:15:08;;;;;;;1.83;0.30;;;23.10;99.90;;;;;;5005228;28;20773;-32
2023/08/03 11:17:36;;;;;;;2.05;0.40;;;23.20;99.90;;;;;;5000942;28;20034;-32
2023/08/03 11:20:04;;;;;;;0.45;0.32;;;23.20;99.90;;;;;;5003658;28;20026;-30
2023/08/03 11:22:31;;;;;;;0.20;0.20;;;22.90;99.90;;;;;;4995479;28;20035;-34
2023/08/03 11:25:02;;;;;;;1.30;0.40;;;23.00;99.90;;;;;;5006175;28;20042;-31
2023/08/03 11:27:29;;;;;;;0.30;0.25;;;23.00;99.90;;;;;;4993221;28;20080;-33
2023/08/03 11:29:56;;;;;;;1.73;0.75;;;22.90;99.90;;;;;;4990655;28;20038;-31
2023/08/03 11:32:25;;;;;;;1.35;0.40;;;22.60;99.90;;;;;;5004421;28;20094;-31
2023/08/03 11:35:05;;;;;;;1.63;0.47;;;22.80;99.90;;;;;;5001810;28;20371;-34
2023/08/03 11:37:33;;;;;;;0.90;0.32;;;23.10;99.90;;;;;;5000014;28;20026;-32
2023/08/03 11:40:00;;;;;;;2.65;0.40;;;23.50;99.90;;;;;;5001421;28;20374;-34
2023/08/03 11:42:27;;;;;;;0.73;0.20;;;23.70;99.90;;;;;;5007605;28;20026;-35
2023/08/03 11:44:53;;;;;;;1.10;0.43;;;23.70;99.90;;;;;;5001089;28;20034;-32
2023/08/03 11:47:18;;;;;;;0.45;0.35;;;24.00;99.90;;;;;;4984581;28;21187;-32
2023/08/03 11:49:48;;;;;;;1.83;0.47;;;23.90;99.90;;;;;;4996436;28;20029;-32
2023/08/03 11:52:20;;;;;;;1.88;0.40;;;23.20;99.90;;;;;;5000233;28;20053;-33
2023/08/03 11:54:46;;;;;;;0.85;0.32;;;23.20;99.90;;;;;;4986930;28;20343;-37
2023/08/03 11:59:56;;;;;;;0.45;0.28;;;22.90;99.90;;;;;;4997695;28;20032;-34
2023/08/03 12:02:45;;;;;;;0.75;0.40;;;22.60;99.90;;;;;;5003955;28;20124;-34
2023/08/03 12:05:12;;;;;;;1.17;0.40;;;22.60;99.90;;;;;;5002961;28;20034;-32
2023/08/03 12:07:38;;;;;;;0.93;0.55;;;22.90;99.90;;;;;;5008692;28;20498;-33
2023/08/03 12:10:13;;;;;;;0.68;0.30;;;23.20;99.90;;;;;;4996395;28;20127;-31
2023/08/03 12:12:40;;;;;;;0.45;0.40;;;23.20;99.90;;;;;;5002480;28;20068;-31
2023/08/03 12:15:06;;;;;;;1.50;0.40;;;23.40;99.90;;;;;;5005454;28;20026;-34
2023/08/03 12:17:32;;;;;;;0.80;0.38;;;23.50;99.90;;;;;;5002549;28;20026;-34
2023/08/03 12:19:58;;;;;;;0.50;0.43;;;23.60;99.90;;;;;;4995827;28;20033;-32
2023/08/03 12:22:23;;;;;;;1.70;0.40;;;23.90;99.90;;;;;;5003531;28;20050;-33
2023/08/03 12:24:49;;;;;;;1.60;0.50;;;24.10;99.90;;;;;;5004002;28;20531;-32
2023/08/03 12:27:14;;;;;;;1.25;0.28;;;23.50;99.90;;;;;;4998150;28;20034;-31
2023/08/03 12:29:40;;;;;;;0.10;0.10;;;23.10;99.90;;;;;;5004167;28;20549;-32
2023/08/03 12:32:06;;;;;;;2.47;0.38;;;23.00;99.90;;;;;;4997690;28;20038;-31
2023/08/03 12:34:32;;;;;;;1.08;0.30;;;23.20;99.90;;;;;;5000527;28;20037;-32
2023/08/03 12:36:57;;;;;;;0.93;0.30;;;23.40;99.90;;;;;;5005893;28;20704;-35
2023/08/03 12:39:23;;;;;;;0.50;0.45;;;23.10;99.90;;;;;;5002133;28;20536;-31
2023/08/03 12:41:49;;;;;;;0.47;0.25;;;23.10;99.90;;;;;;5007108;28;20483;-30
2023/08/03 12:44:15;;;;;;;0.63;0.30;;;23.10;99.90;;;;;;5007811;28;20037;-30
2023/08/03 12:46:41;;;;;;;1.35;0.40;;;23.20;99.90;;;;;;5010874;28;20510;-31
2023/08/03 12:49:07;;;;;;;1.45;0.40;;;23.60;99.90;;;;;;5003581;28;20030;-36
2023/08/03 12:51:35;;;;;;;1.17;0.40;;;23.90;99.90;;;;;;5009623;28;20107;-31
2023/08/03 12:54:02;;;;;;;0.75;0.20;;;24.00;99.90;;;;;;5003307;28;20069;-31